Terminal Aerodrome Forecast
Issued by NWS Sioux Falls, SD

Home | Current Version | Previous Version | Text Only | Print | Product List | Glossary Off
Versions: 1 2 3 4 5 6 7 8 9 10 11 12 13 14 15 16

447
FTUS43 KFSD 231137
TAFHON
TAF
KHON 231137Z 2312/2412 10006KT 6SM BR SCT100 BKN250
     FM231400 13008KT P6SM VCTS OVC080CB
     FM231600 15010KT P6SM BKN130
     FM231800 16016G24KT P6SM FEW035 SCT200
     FM240100 16015KT P6SM SCT045 BKN110
     FM240400 15011KT P6SM SCT130 WS020/18040KT
     FM240700 17011KT P6SM BKN110=

USA.gov is the U.S. government's official web portal to all federal, state and local government web resources and services.